^^
Station Historical Data
Daily Summary for June 29, 2017 Units:  Metric    English   Both
« Previous Day
Next Day »
Daily Weekly Monthly Yearly Custom
  High: Low: Average:
Temperature: 23.1 °C 7.6 °C 13.7 °C
Dew Point: 4.8 °C -0.7 °C 1.7 °C
Humidity: 68% 24% 47%
Wind Speed: 35.2km/h 0km/h 4.7km/h
Wind Gust: 35.4km/h - -
Wind- - SSE
Pressure: 1021.9 hPa 1016.1 hPa -
Precipitation: 0 mm    
Historical Graphs
 
 
Tabular Data for June 29, 2017
Time Temperature Dew Point Pressure Wind Wind Speed Wind Gust Humidity Rainfall Rate (Hourly) solar Conditions
00:01 10.9 °C 1.7 °C 1021.2 hPa Calm     53% 0 mm 0.0 W/m2
00:06 10.9 °C 1.7 °C 1021.2 hPa Calm     53% 0 mm 0.0 W/m2
00:11 11.1 °C 1.9 °C 1021.2 hPa Calm     53% 0 mm 0.0 W/m2
00:16 11.2 °C 1.7 °C 1021.2 hPa Calm     52% 0 mm 0.0 W/m2
00:22 11.2 °C 1.7 °C 1021.2 hPa Calm     52% 0 mm 0.0 W/m2
00:27 11.2 °C 1.7 °C 1021.2 hPa Calm     52% 0 mm 0.0 W/m2
00:37 11 °C 1.5 °C 1021.2 hPa Calm     52% 0 mm 0.0 W/m2
00:42 10.9 °C 1.4 °C 1021.2 hPa Calm     52% 0 mm 0.0 W/m2
00:47 10.8 °C 1.6 °C 1021.2 hPa Calm     53% 0 mm 0.0 W/m2
00:53 10.8 °C 1.6 °C 1021.2 hPa Calm     53% 0 mm 0.0 W/m2
00:59 10.9 °C 1.7 °C 1021.2 hPa Calm     53% 0 mm 0.0 W/m2
01:04 10.9 °C 1.7 °C 1021.2 hPa Calm     53% 0 mm 0.0 W/m2
01:09 10.9 °C 1.7 °C 1021.2 hPa Calm     53% 0 mm 0.0 W/m2
01:14 10.8 °C 1.9 °C 1021.2 hPa Calm     54% 0 mm 0.0 W/m2
01:19 10.8 °C 1.9 °C 1021.2 hPa Calm     54% 0 mm 0.0 W/m2
01:24 10.7 °C 2 °C 1021.2 hPa Calm     55% 0 mm 0.0 W/m2
01:30 10.7 °C 2 °C 1020.9 hPa Calm     55% 0 mm 0.0 W/m2
01:35 10.7 °C 2 °C 1020.9 hPa Calm     55% 0 mm 0.0 W/m2
01:40 10.7 °C 2 °C 1020.9 hPa Calm     55% 0 mm 0.0 W/m2
01:45 10.7 °C 2.3 °C 1020.9 hPa Calm     56% 0 mm 0.0 W/m2
01:51 10.6 °C 2.2 °C 1020.9 hPa Calm     56% 0 mm 0.0 W/m2
01:56 10.7 °C 2.5 °C 1020.9 hPa Calm     57% 0 mm 0.0 W/m2
02:01 10.8 °C 2.6 °C 1020.9 hPa Calm     57% 0 mm 0.0 W/m2
02:06 11.1 °C 2.7 °C 1020.9 hPa Calm     56% 0 mm 0.0 W/m2
02:11 11.3 °C 2.8 °C 1020.9 hPa Calm     56% 0 mm 0.0 W/m2
02:17 11.3 °C 2.8 °C 1020.9 hPa Calm     56% 0 mm 0.0 W/m2
02:22 11.3 °C 2.8 °C 1020.9 hPa Calm     56% 0 mm 0.0 W/m2
02:32 11.1 °C 2.7 °C 1020.9 hPa Calm     56% 0 mm 0.0 W/m2
02:43 10.2 °C 2.1 °C 1020.9 hPa Calm     57% 0 mm 0.0 W/m2
02:48 9.8 °C 1.9 °C 1020.9 hPa Calm     58% 0 mm 0.0 W/m2
02:53 9.4 °C 1.8 °C 1020.9 hPa Calm     59% 0 mm 0.0 W/m2
02:58 9 °C 1.4 °C 1020.9 hPa Calm     59% 0 mm 0.0 W/m2
03:03 8.7 °C 1.4 °C 1020.9 hPa Calm     60% 0 mm 0.0 W/m2
03:09 8.3 °C 1.2 °C 1020.9 hPa Calm     61% 0 mm 0.0 W/m2
03:14 8.2 °C 1.4 °C 1020.9 hPa Calm     62% 0 mm 0.0 W/m2
03:19 8.5 °C 2.1 °C 1020.9 hPa Calm     64% 0 mm 0.0 W/m2
03:24 8.8 °C 1.5 °C 1020.9 hPa Calm     60% 0 mm 0.0 W/m2
03:29 8.7 °C 1.6 °C 1020.9 hPa Calm     61% 0 mm 0.0 W/m2
03:35 8.8 °C 1.7 °C 1020.9 hPa Calm     61% 0 mm 0.0 W/m2
03:45 8.2 °C 1.1 °C 1020.9 hPa Calm     61% 0 mm 0.0 W/m2
03:50 7.7 °C 1.1 °C 1020.9 hPa Calm     63% 0 mm 0.0 W/m2
04:00 7.8 °C 1.2 °C 1020.9 hPa Calm     63% 0 mm 0.0 W/m2
04:05 7.6 °C 1.4 °C 1020.9 hPa Calm     65% 0 mm 0.0 W/m2
04:11 7.6 °C 1.7 °C 1020.9 hPa Calm     66% 0 mm 0.0 W/m2
04:16 7.7 °C 1.7 °C 1020.9 hPa Calm     66% 0 mm 0.0 W/m2
04:21 7.8 °C 1.8 °C 1020.9 hPa Calm     66% 0 mm 0.0 W/m2
04:26 7.7 °C 1.7 °C 1020.9 hPa Calm     66% 0 mm 0.0 W/m2
04:31 7.7 °C 2 °C 1020.9 hPa Calm     67% 0 mm 0.0 W/m2
04:36 7.7 °C 2.2 °C 1020.9 hPa Calm     68% 0 mm 0.0 W/m2
04:47 8.8 °C 2.8 °C 1020.9 hPa Calm     66% 0 mm 0.0 W/m2
04:57 9.4 °C 2.9 °C 1020.9 hPa Calm     64% 0 mm 0.0 W/m2
05:07 9.6 °C 2.9 °C 1020.9 hPa Calm     63% 0 mm 0.0 W/m2
05:12 9.6 °C 2.9 °C 1020.9 hPa Calm     63% 0 mm 0.0 W/m2
05:18 9.5 °C 3 °C 1021.2 hPa Calm     64% 0 mm 0.0 W/m2
05:24 9.4 °C 2.9 °C 1020.9 hPa Calm     64% 0 mm 0.0 W/m2
05:30 9.3 °C 2.8 °C 1020.9 hPa Calm     64% 0 mm 0.0 W/m2
05:41 8.9 °C 2.9 °C 1020.9 hPa Calm     66% 0 mm 0.0 W/m2
05:50 9.1 °C 3.1 °C 1020.9 hPa Calm     66% 0 mm 0.0 W/m2
06:02 9.1 °C 3.1 °C 1021.2 hPa Calm     66% 0 mm 0.0 W/m2
06:12 9.1 °C 3.1 °C 1021.2 hPa SSW 6.4 km/h 14.5 km/h 66% 0 mm 0.0 W/m2
06:21 9 °C 3.2 °C 1021.2 hPa SSW 11.1 km/h 16.1 km/h 67% 0 mm 0.0 W/m2
06:27 9 °C 3.2 °C 1021.2 hPa SSW 7.9 km/h 16.1 km/h 67% 0 mm 0.0 W/m2
06:32 9 °C 3.2 °C 1021.2 hPa SSW 9.7 km/h 11.3 km/h 67% 0 mm 0.0 W/m2
06:42 8.9 °C 3.1 °C 1021.2 hPa SSW 7.9 km/h 17.7 km/h 67% 0 mm 5.0 W/m2
06:48 9 °C 3.2 °C 1021.2 hPa SSW 9.7 km/h 14.5 km/h 67% 0 mm 7.0 W/m2
06:53 9 °C 3.2 °C 1021.2 hPa SSW 9.7 km/h 17.7 km/h 67% 0 mm 11.0 W/m2
07:01 9.1 °C 3.3 °C 1021.2 hPa South 11.1 km/h 17.7 km/h 67% 0 mm 16.0 W/m2
07:16 9.3 °C 3.5 °C 1021.2 hPa SSE 13 km/h 19.3 km/h 67% 0 mm 23.0 W/m2
07:21 9.4 °C 3.6 °C 1021.6 hPa SE 9.7 km/h 16.1 km/h 67% 0 mm 32.0 W/m2
07:33 9.8 °C 3.7 °C 1021.6 hPa SE 7.9 km/h 19.3 km/h 66% 0 mm 77.0 W/m2
07:42 10.1 °C 3.8 °C 1021.6 hPa SE 11.1 km/h 16.1 km/h 65% 0 mm 118.0 W/m2
08:07 10.8 °C 4 °C 1021.6 hPa ESE 11.1 km/h 22.5 km/h 63% 0 mm 190.0 W/m2
08:21 11.5 °C 4.2 °C 1021.6 hPa East 11.1 km/h 22.5 km/h 61% 0 mm 236.0 W/m2
08:37 12.3 °C 4.5 °C 1021.6 hPa ENE 9.7 km/h 22.5 km/h 59% 0 mm 281.0 W/m2
08:52 12.9 °C 4.3 °C 1021.9 hPa NE 11.1 km/h 22.5 km/h 56% 0 mm 316.0 W/m2
09:37 14.8 °C 4.8 °C 1021.9 hPa North 22.7 km/h 29 km/h 51% 0 mm 422.0 W/m2
10:38 16.5 °C 4.5 °C 1021.2 hPa North 14.3 km/h 25.7 km/h 45% 0 mm 522.0 W/m2
10:52 16.8 °C 4.5 °C 1021.2 hPa North 19.5 km/h 32.2 km/h 44% 0 mm 538.0 W/m2
11:06 17.2 °C 4.5 °C 1020.9 hPa North 19.5 km/h 27.4 km/h 43% 0 mm 552.0 W/m2
11:16 17.7 °C 4.3 °C 1020.5 hPa North 13 km/h 30.6 km/h 41% 0 mm 559.0 W/m2
11:27 17.8 °C 4 °C 1020.5 hPa North 14.3 km/h 27.4 km/h 40% 0 mm 564.0 W/m2
11:42 18.4 °C 3.8 °C 1020.2 hPa North 35.2 km/h 35.4 km/h 38% 0 mm 570.0 W/m2
11:58 18.9 °C 3.5 °C 1019.9 hPa North 17.7 km/h 33.8 km/h 36% 0 mm 568.0 W/m2
12:43 20 °C 3.7 °C 1018.8 hPa North 13 km/h 32.2 km/h 34% 0 mm 550.0 W/m2
14:28 22.1 °C 2.2 °C 1017.2 hPa North 6.4 km/h 22.5 km/h 27% 0 mm 387.0 W/m2
14:41 22.2 °C 2.3 °C 1016.8 hPa NNE 17.7 km/h 27.4 km/h 27% 0 mm 352.0 W/m2
14:51 22.4 °C 2 °C 1016.8 hPa North 14.3 km/h 25.7 km/h 26% 0 mm 329.0 W/m2
15:02 22.5 °C 2 °C 1016.8 hPa NNE 20.9 km/h 30.6 km/h 26% 0 mm 304.0 W/m2
15:35 22.9 °C 1.3 °C 1016.1 hPa North 11.1 km/h 19.3 km/h 24% 0 mm 204.0 W/m2
15:41 23 °C 1.3 °C 1016.1 hPa North 17.7 km/h 27.4 km/h 24% 0 mm 192.0 W/m2
15:54 23.1 °C 1.4 °C 1016.1 hPa North 17.7 km/h 20.9 km/h 24% 0 mm 158.0 W/m2
16:07 23 °C 1.3 °C 1016.1 hPa NNE 20.9 km/h 27.4 km/h 24% 0 mm 111.0 W/m2
16:19 22.8 °C 1.2 °C 1016.1 hPa North 13 km/h 19.3 km/h 24% 0 mm 83.0 W/m2
16:34 22.8 °C 1.2 °C 1016.1 hPa NNE 19.5 km/h 22.5 km/h 24% 0 mm 47.0 W/m2
16:48 22.4 °C 0.8 °C 1016.1 hPa NNE 14.3 km/h 17.7 km/h 24% 0 mm 18.0 W/m2
16:55 22.2 °C 0.7 °C 1016.1 hPa NNE 14.3 km/h 17.7 km/h 24% 0 mm 11.0 W/m2
17:01 22.2 °C 0.7 °C 1016.1 hPa NNE 14.3 km/h 16.1 km/h 24% 0 mm 7.0 W/m2
17:12 21.9 °C 1 °C 1016.1 hPa NE 7.9 km/h 16.1 km/h 25% 0 mm 0.0 W/m2
17:21 21.6 °C 0.7 °C 1016.1 hPa NE 13 km/h 14.5 km/h 25% 0 mm 0.0 W/m2
17:29 21.4 °C 1.1 °C 1016.1 hPa NE 13 km/h 13 km/h 26% 0 mm 0.0 W/m2
17:38 21.4 °C 1.1 °C 1016.1 hPa NE 11.1 km/h 16.1 km/h 26% 0 mm 0.0 W/m2
17:49 21.4 °C 1.1 °C 1016.1 hPa NE 13 km/h 17.7 km/h 26% 0 mm 0.0 W/m2
18:00 21.2 °C 0.9 °C 1016.1 hPa NE 7.9 km/h 14.5 km/h 26% 0 mm 0.0 W/m2
18:11 20.9 °C 1.2 °C 1016.1 hPa NE 9.7 km/h 14.5 km/h 27% 0 mm 0.0 W/m2
18:20 20.7 °C 1 °C 1016.1 hPa NE 11.1 km/h 12.9 km/h 27% 0 mm 0.0 W/m2
18:42 20.7 °C 0.5 °C 1016.1 hPa NNE 6.4 km/h 12.9 km/h 26% 0 mm 0.0 W/m2
18:53 20.6 °C 0.4 °C 1016.1 hPa Calm   8 km/h 26% 0 mm 0.0 W/m2
19:21 18.6 °C 0.2 °C 1016.1 hPa Calm     29% 0 mm 0.0 W/m2
19:36 18.3 °C 0.4 °C 1016.5 hPa Calm     30% 0 mm 0.0 W/m2
19:56 16.5 °C 0.2 °C 1016.5 hPa Calm     33% 0 mm 0.0 W/m2
20:06 15.8 °C 0 °C 1016.5 hPa Calm     34% 0 mm 0.0 W/m2
20:11 15.7 °C 0.3 °C 1016.5 hPa Calm     35% 0 mm 0.0 W/m2
20:17 15.6 °C -0.2 °C 1016.5 hPa Calm     34% 0 mm 0.0 W/m2
20:28 14.9 °C -0.4 °C 1016.1 hPa NNE 9.7 km/h 11.3 km/h 35% 0 mm 0.0 W/m2
20:34 15 °C 0 °C 1016.1 hPa NNE 9.7 km/h 12.9 km/h 36% 0 mm 0.0 W/m2
20:39 15.4 °C 0 °C 1016.1 hPa NNE 9.7 km/h 12.9 km/h 35% 0 mm 0.0 W/m2
20:49 16.3 °C 0 °C 1016.1 hPa NE 6.4 km/h 12.9 km/h 33% 0 mm 0.0 W/m2
21:01 17.1 °C 0.3 °C 1016.1 hPa Calm     32% 0 mm 0.0 W/m2
21:28 16.5 °C -0.3 °C 1016.5 hPa Calm     32% 0 mm 0.0 W/m2
21:35 15.9 °C -0.4 °C 1016.5 hPa Calm     33% 0 mm 0.0 W/m2
21:50 14.8 °C -0.5 °C 1016.5 hPa Calm     35% 0 mm 0.0 W/m2
22:00 14.2 °C -0.7 °C 1016.5 hPa Calm     36% 0 mm 0.0 W/m2
22:05 14.1 °C -0.4 °C 1016.5 hPa Calm     37% 0 mm 0.0 W/m2
22:10 14 °C -0.5 °C 1016.8 hPa Calm     37% 0 mm 0.0 W/m2
22:16 13.9 °C -0.2 °C 1016.8 hPa Calm     38% 0 mm 0.0 W/m2
22:26 14.4 °C 0.3 °C 1016.8 hPa Calm     38% 0 mm 0.0 W/m2
22:31 14.4 °C -0.1 °C 1016.8 hPa Calm     37% 0 mm 0.0 W/m2
22:36 14.4 °C 0.3 °C 1016.8 hPa Calm     38% 0 mm 0.0 W/m2
22:42 15 °C 0.4 °C 1016.8 hPa Calm     37% 0 mm 0.0 W/m2
22:52 16.9 °C 0.5 °C 1016.8 hPa Calm     33% 0 mm 0.0 W/m2
22:57 17.2 °C 0.4 °C 1016.8 hPa Calm     32% 0 mm 0.0 W/m2
23:02 17.3 °C 0.4 °C 1016.8 hPa Calm     32% 0 mm 0.0 W/m2
23:12 16.9 °C 0.1 °C 1016.8 hPa Calm     32% 0 mm 0.0 W/m2
23:18 16.7 °C -0.1 °C 1016.5 hPa Calm     32% 0 mm 0.0 W/m2
23:23 16.4 °C 0.1 °C 1016.5 hPa Calm     33% 0 mm 0.0 W/m2
23:28 16.3 °C 0 °C 1016.5 hPa Calm     33% 0 mm 0.0 W/m2
23:33 16.2 °C -0.1 °C 1016.5 hPa Calm     33% 0 mm 0.0 W/m2
23:39 16.1 °C -0.2 °C 1016.5 hPa Calm     33% 0 mm 0.0 W/m2
23:44 16.1 °C -0.2 °C 1016.5 hPa Calm     33% 0 mm 0.0 W/m2
23:49 16 °C -0.3 °C 1016.5 hPa Calm     33% 0 mm 0.0 W/m2
23:54 15.9 °C 0.1 °C 1016.5 hPa Calm     34% 0 mm 0.0 W/m2
23:59 15.9 °C 0.1 °C 1016.5 hPa Calm     34% 0 mm 0.0 W/m2
Canyon Roadhouse, Fishriver Canyon, Namibia
Compliments of Weather Underground - 2.25 mb